Main page
METAR-TAF:

METAR-TAF

Airports :

RAF Shawbury

Shawbury, England

latitude: 52-48N, longitude: 002-40W, elevation: 76 m

Current weather observation

The report was made 1 hour and 0 minutes ago, at 05:50 UTC
Wind 7 kt from the West
Temperature 11°C
Humidity 87%
Pressure 1025 hPa
Visibility 10 km or more

METAR: EGOS 110550Z AUTO 27007KT 9999 SCT050/// 11/09 Q1025

Time: 07:50 (06:50 UTC)

Forecast

The report was made 17 hours and 7 minutes ago, at 13:43 UTC
Forecast valid from 10 at 15 UTC to 10 at 18 UTC
Wind 12 kt from the West/Northwest
Visibility 10 km or more
Scattered clouds at a height of 3000 ft
Probability 30% :
Temporary
from 10 at 15 UTC to 10 at 18 UTC
Wind 15 kt from the West/Northwest with gusts up to 25 kt

TAF: EGOS 101343Z 1015/1018 30012KT 9999 SCT030 PROB30 TEMPO 1015/1018 30015G25KT

Weather observations and forecasts of more than 4000 airports (METAR and TAF reports).

The available stations are represented by yellow and red dots on the map.

Hover mouse over dot to see the name of the station.

Then click to see weather observations and forecasts.

To change the map : click on the green buttons with a black cross to zoom in, on the green button with a dash to zoom out, or on the green arrows for adjacent maps.


METAR-TAF: